This is the latest recevied weather packets stored in our database for station/object K7FRY. If no packets are shown the sender has not sent any weather packets the latest 10 day(s).
| Time | Temp. | Humidity | Pressure | Rain* | Wind** | Luminosity | Snow |
|---|---|---|---|---|---|---|---|
| 1777576658 | 28.89° C | 17% | 1010.9 hPa | 0 mm | - | 891 W/m² | - |
| 1777576358 | 28.89° C | 17% | 1011.1 hPa | 0 mm | - | 934 W/m² | - |
| 1777576054 | 28.89° C | 17% | 1011.2 hPa | 0 mm | - | 981 W/m² | - |
| 1777575751 | 27.78° C | 18% | 1011.2 hPa | 0 mm | - | 800 W/m² | - |
| 1777575447 | 27.22° C | 18% | 1011.1 hPa | 0 mm | - | 411 W/m² | - |
| 1777575143 | 27.22° C | 18% | 1011.2 hPa | 0 mm | - | 280 W/m² | - |
| 1777574839 | 26.67° C | 18% | 1011.5 hPa | 0 mm | - | 259 W/m² | - |
| 1777574537 | 27.22° C | 18% | 1011.4 hPa | 0 mm | - | 262 W/m² | - |
| 1777574233 | 26.67° C | 18% | 1011.6 hPa | 0 mm | - | 275 W/m² | - |
| 1777573928 | 27.78° C | 18% | 1011.6 hPa | 0 mm | - | 373 W/m² | - |
| 1777573628 | 27.78° C | 17% | 1011.8 hPa | 0 mm | - | 432 W/m² | - |
| 1777573319 | 28.33° C | 17% | 1011.9 hPa | 0 mm | - | 891 W/m² | - |
| 1777573015 | 27.78° C | 18% | 1012 hPa | 0 mm | - | 828 W/m² | - |
| 1777572711 | 27.78° C | 18% | 1012.3 hPa | 0 mm | - | 797 W/m² | - |
| 1777572406 | 27.78° C | 18% | 1012.2 hPa | 0 mm | - | 806 W/m² | - |
| 1777572103 | 27.22° C | 18% | 1012.4 hPa | 0 mm | - | 831 W/m² | - |
| 1777571803 | 27.22° C | 18% | 1012.3 hPa | 0 mm | - | 664 W/m² | - |
| 1777571499 | 27.78° C | 18% | 1012.7 hPa | 0 mm | - | 823 W/m² | - |
| 1777571197 | 27.22° C | 18% | 1012.6 hPa | 0 mm | - | 787 W/m² | - |
| 1777570892 | 26.67° C | 19% | 1012.8 hPa | 0 mm | - | 772 W/m² | - |
| 1777570588 | 26.67° C | 19% | 1012.6 hPa | 0 mm | - | 775 W/m² | - |
| 1777570286 | 27.22° C | 18% | 1012.9 hPa | 0 mm | - | 796 W/m² | - |
| 1777569981 | 26.67° C | 19% | 1012.8 hPa | 0 mm | - | 753 W/m² | - |
| 1777569677 | 27.22° C | 19% | 1012.7 hPa | 0 mm | - | 807 W/m² | - |
| 1777569373 | 26.67° C | 19% | 1012.8 hPa | 0 mm | - | 641 W/m² | - |
* Rain latest hour (hover to see other rain measurements)
** Current wind speed in m/s (hover to see current wind gust speed)